createdAt,value
2022-07-28T00:03:14.881Z,38.60
2022-07-28T00:08:30.784Z,38.60
2022-07-28T00:13:46.751Z,38.60
2022-07-28T00:19:02.506Z,38.60
2022-07-28T00:24:17.523Z,38.50
2022-07-28T00:29:49.850Z,38.60
2022-07-28T00:35:08.139Z,38.60
2022-07-28T00:40:24.733Z,38.50
2022-07-28T00:45:40.805Z,38.50
2022-07-28T00:50:56.515Z,38.50
2022-07-28T00:56:11.774Z,38.40
2022-07-28T01:01:27.515Z,38.60
2022-07-28T01:06:42.758Z,38.50
2022-07-28T01:11:58.461Z,38.50
2022-07-28T01:17:13.721Z,38.40
2022-07-28T01:22:29.461Z,38.30
2022-07-28T01:27:44.526Z,38.30
2022-07-28T01:32:59.491Z,38.30
2022-07-28T01:38:14.508Z,38.20
2022-07-28T01:43:29.529Z,38.20
2022-07-28T01:48:44.843Z,38.20
2022-07-28T01:54:00.494Z,38.30
2022-07-28T01:59:15.772Z,38.30
2022-07-28T02:04:31.467Z,38.30
2022-07-28T02:09:46.887Z,38.20
2022-07-28T02:15:02.782Z,38.30
2022-07-28T02:20:18.470Z,38.20
2022-07-28T02:25:33.767Z,38.30
2022-07-28T02:30:49.510Z,38.20
2022-07-28T02:36:04.473Z,38.30
2022-07-28T02:41:21.491Z,38.20
2022-07-28T02:46:36.509Z,38.20
2022-07-28T02:51:51.280Z,38.30
2022-07-28T02:57:06.751Z,38.30
2022-07-28T03:02:22.785Z,38.30
2022-07-28T03:07:43.754Z,38.30
2022-07-28T03:13:06.800Z,38.30
2022-07-28T03:18:22.881Z,38.20
2022-07-28T03:23:38.750Z,38.70
2022-07-28T03:28:54.525Z,38.20
2022-07-28T03:34:09.826Z,38.10
2022-07-28T03:39:25.826Z,38.10
2022-07-28T03:44:47.546Z,38.10
2022-07-28T03:50:03.069Z,38.10
2022-07-28T03:55:18.464Z,38.10
2022-07-28T04:00:33.522Z,38.10
2022-07-28T04:05:48.775Z,38.20
2022-07-28T04:11:04.549Z,38.30
2022-07-28T04:16:19.523Z,38.30
2022-07-28T04:21:37.480Z,38.30
2022-07-28T04:26:52.520Z,38.30
2022-07-28T04:32:08.708Z,38.30
2022-07-28T04:37:24.770Z,38.90
2022-07-28T04:42:40.803Z,38.10
2022-07-28T04:47:56.768Z,38.20
2022-07-28T04:53:12.477Z,38.20
2022-07-28T04:58:27.659Z,38.20
2022-07-28T05:03:46.789Z,38.10
2022-07-28T05:09:02.541Z,38.20
2022-07-28T05:14:17.895Z,38.20
2022-07-28T05:19:33.477Z,38.20
2022-07-28T05:24:48.802Z,38.20
2022-07-28T05:30:04.771Z,38.20
2022-07-28T05:35:20.484Z,38.30
2022-07-28T05:40:35.457Z,38.20
2022-07-28T05:45:50.832Z,38.10
2022-07-28T05:51:06.517Z,38.10
2022-07-28T05:56:21.540Z,38.10
2022-07-28T06:01:36.624Z,38.20
2022-07-28T06:06:51.472Z,38.10
2022-07-28T06:12:06.857Z,38.20
2022-07-28T06:17:22.250Z,38.20
2022-07-28T06:22:37.474Z,38.30
2022-07-28T06:27:52.518Z,38.20
2022-07-28T06:33:07.794Z,38.20
2022-07-28T06:38:23.790Z,38.30
2022-07-28T06:43:39.849Z,38.30
2022-07-28T06:48:55.801Z,38.30
2022-07-28T06:54:11.717Z,38.40
2022-07-28T06:59:27.496Z,38.40
2022-07-28T07:04:42.532Z,38.40
2022-07-28T07:09:57.550Z,38.50
2022-07-28T07:15:12.873Z,38.50
2022-07-28T07:20:28.490Z,38.50
2022-07-28T07:25:43.541Z,38.50
2022-07-28T07:30:58.527Z,38.50
2022-07-28T07:36:13.524Z,38.50
2022-07-28T07:41:28.483Z,39.00
2022-07-28T07:46:46.897Z,38.30
2022-07-28T07:52:02.848Z,38.30
2022-07-28T07:57:18.820Z,38.30
2022-07-28T08:02:34.466Z,38.20
2022-07-28T08:07:49.508Z,38.20
2022-07-28T08:13:04.502Z,38.00
2022-07-28T08:18:19.499Z,37.90
2022-07-28T08:23:34.797Z,37.80
2022-07-28T08:28:50.829Z,37.50
2022-07-28T08:34:28.473Z,37.10
2022-07-28T08:39:41.513Z,37.20
2022-07-28T08:44:56.800Z,37.10
2022-07-28T08:50:13.613Z,37.30
2022-07-28T08:55:31.964Z,36.90
2022-07-28T09:00:47.589Z,36.90
2022-07-28T09:06:02.557Z,36.80
2022-07-28T09:11:17.567Z,36.60
2022-07-28T09:16:32.857Z,36.90
2022-07-28T09:21:48.773Z,36.90
2022-07-28T09:27:04.471Z,36.70
2022-07-28T09:32:19.512Z,36.80
2022-07-28T09:37:34.521Z,36.50
2022-07-28T09:42:49.511Z,36.50
2022-07-28T09:48:04.617Z,36.60
2022-07-28T09:53:19.515Z,36.30
2022-07-28T09:58:34.513Z,36.20
2022-07-28T10:03:50.891Z,36.30
2022-07-28T10:09:06.878Z,36.00
2022-07-28T10:14:22.527Z,35.90
2022-07-28T10:19:40.495Z,35.90
2022-07-28T10:24:55.538Z,36.00
2022-07-28T10:30:10.499Z,35.90
2022-07-28T10:35:25.509Z,35.90
2022-07-28T10:40:40.487Z,36.00
2022-07-28T10:46:05.743Z,35.80
2022-07-28T10:51:22.226Z,36.00
2022-07-28T10:56:43.518Z,35.80
2022-07-28T11:02:00.641Z,35.90
2022-07-28T11:07:16.801Z,35.90
2022-07-28T11:12:32.539Z,36.00
2022-07-28T11:17:47.898Z,36.00
2022-07-28T11:23:03.840Z,36.20
2022-07-28T11:28:23.590Z,36.10
2022-07-28T11:33:38.506Z,36.10
2022-07-28T11:39:02.576Z,36.00
2022-07-28T11:44:17.582Z,36.20
2022-07-28T11:49:34.590Z,36.40
2022-07-28T11:54:49.829Z,36.40
2022-07-28T12:00:05.799Z,36.20
2022-07-28T12:05:23.820Z,36.10
2022-07-28T12:10:54.599Z,35.90
2022-07-28T12:16:10.574Z,35.90
2022-07-28T12:21:25.741Z,35.70
2022-07-28T12:26:43.599Z,35.70
2022-07-28T12:31:58.576Z,35.90
2022-07-28T12:37:13.507Z,35.90
2022-07-28T12:42:28.517Z,35.90
2022-07-28T12:47:43.525Z,35.70
2022-07-28T12:52:58.560Z,35.60
2022-07-28T12:58:13.652Z,35.70
2022-07-28T13:03:29.541Z,35.90
2022-07-28T13:08:45.122Z,35.60
2022-07-28T13:14:00.570Z,35.60
2022-07-28T13:19:15.530Z,35.80
2022-07-28T13:24:31.534Z,36.10
2022-07-28T13:29:46.779Z,36.10
2022-07-28T13:35:02.501Z,36.10
2022-07-28T13:40:17.901Z,35.80
2022-07-28T13:45:33.937Z,36.10
2022-07-28T13:50:51.527Z,36.20
2022-07-28T13:56:06.495Z,35.90
2022-07-28T14:01:21.927Z,35.80
2022-07-28T14:06:37.821Z,35.70
2022-07-28T14:11:54.366Z,36.00
2022-07-28T14:17:32.507Z,36.10
2022-07-28T14:22:44.561Z,36.20
2022-07-28T14:28:01.829Z,36.20
2022-07-28T14:33:17.510Z,36.20
2022-07-28T14:38:52.457Z,36.20
2022-07-28T14:44:07.510Z,36.20
2022-07-28T14:49:30.816Z,36.20
2022-07-28T14:54:46.524Z,36.00
2022-07-28T15:00:01.528Z,36.30
2022-07-28T15:05:16.599Z,36.10
2022-07-28T15:10:31.838Z,36.00
2022-07-28T15:15:47.872Z,36.00
2022-07-28T15:21:03.602Z,36.00
2022-07-28T15:26:18.274Z,36.60
2022-07-28T15:31:33.633Z,36.10
2022-07-28T15:36:48.531Z,35.90
2022-07-28T15:42:03.682Z,36.10
2022-07-28T15:47:18.564Z,36.10
2022-07-28T15:52:33.512Z,36.40
2022-07-28T15:57:48.858Z,36.60
2022-07-28T16:03:04.630Z,36.60
2022-07-28T16:08:22.732Z,36.60
2022-07-28T16:13:38.529Z,36.60
2022-07-28T16:18:57.393Z,36.80
2022-07-28T16:24:15.060Z,36.90
2022-07-28T16:29:31.532Z,37.00
2022-07-28T16:34:46.546Z,36.80
2022-07-28T16:40:01.553Z,36.80
2022-07-28T16:45:16.563Z,36.80
2022-07-28T16:50:31.523Z,37.00
2022-07-28T16:55:46.568Z,37.00
2022-07-28T17:01:01.554Z,36.90
2022-07-28T17:06:17.537Z,36.80
2022-07-28T17:11:32.544Z,36.80
2022-07-28T17:16:47.589Z,36.70
2022-07-28T17:22:02.846Z,36.70
2022-07-28T17:27:38.231Z,36.70
2022-07-28T17:32:53.542Z,36.70
2022-07-28T17:38:08.567Z,36.80
2022-07-28T17:43:23.518Z,36.70
2022-07-28T17:48:38.616Z,36.90
2022-07-28T17:53:54.200Z,36.90
2022-07-28T17:59:10.549Z,36.90
2022-07-28T18:04:25.554Z,36.90
2022-07-28T18:09:40.834Z,36.90
2022-07-28T18:14:56.910Z,36.80
2022-07-28T18:20:12.870Z,36.90
2022-07-28T18:25:28.838Z,37.00
2022-07-28T18:30:44.628Z,36.90
2022-07-28T18:35:59.523Z,37.00
2022-07-28T18:41:14.890Z,37.10
2022-07-28T18:46:30.883Z,37.10
2022-07-28T18:51:46.855Z,37.20
2022-07-28T18:57:02.916Z,37.10
2022-07-28T19:02:18.729Z,37.20
2022-07-28T19:07:34.846Z,37.40
2022-07-28T19:12:50.947Z,37.30
2022-07-28T19:18:10.255Z,37.40
2022-07-28T19:23:26.562Z,37.40
2022-07-28T19:28:41.582Z,37.40
2022-07-28T19:33:56.554Z,37.40
2022-07-28T19:39:49.861Z,37.40
2022-07-28T19:45:05.547Z,37.40
2022-07-28T19:50:20.604Z,37.40
2022-07-28T19:55:36.235Z,37.40
2022-07-28T20:00:51.908Z,37.40
2022-07-28T20:06:07.721Z,37.30
2022-07-28T20:11:23.620Z,37.40
2022-07-28T20:16:38.624Z,37.40
2022-07-28T20:21:53.559Z,37.50
2022-07-28T20:27:08.546Z,37.60
2022-07-28T20:32:23.549Z,37.60
2022-07-28T20:37:39.538Z,37.60
2022-07-28T20:42:54.553Z,37.60
2022-07-28T20:48:09.533Z,37.70
2022-07-28T20:53:29.857Z,37.70
2022-07-28T20:58:45.558Z,37.80
2022-07-28T21:04:00.546Z,37.80
2022-07-28T21:09:15.912Z,37.80
2022-07-28T21:14:31.555Z,37.90
2022-07-28T21:19:51.322Z,37.80
2022-07-28T21:25:08.845Z,37.90
2022-07-28T21:30:27.794Z,38.00
2022-07-28T21:35:43.815Z,38.00
2022-07-28T21:40:59.558Z,38.00
2022-07-28T21:46:14.740Z,38.10
2022-07-28T21:51:29.857Z,38.10
2022-07-28T21:56:45.887Z,38.10
2022-07-28T22:02:01.900Z,38.10
2022-07-28T22:07:17.921Z,38.10
2022-07-28T22:12:33.537Z,38.20
2022-07-28T22:17:48.571Z,38.20
2022-07-28T22:23:03.541Z,38.20
2022-07-28T22:28:33.865Z,38.20
2022-07-28T22:33:49.587Z,38.30
2022-07-28T22:39:04.605Z,38.30
2022-07-28T22:44:19.966Z,38.30
2022-07-28T22:49:35.572Z,39.00
2022-07-28T23:00:22.959Z,38.50
2022-07-28T23:05:38.931Z,38.40
2022-07-28T23:10:54.963Z,38.50
2022-07-28T23:16:10.780Z,38.60
2022-07-28T23:21:26.603Z,38.60
2022-07-28T23:26:41.953Z,38.60
2022-07-28T23:31:58.022Z,38.70
2022-07-28T23:37:13.978Z,38.60
2022-07-28T23:42:29.970Z,38.70
2022-07-28T23:47:46.002Z,38.70
2022-07-28T23:53:01.966Z,38.70
2022-07-28T23:58:17.641Z,38.70
